createdAt,value
2018-08-09T00:00:27.127Z,96548.23
2018-08-09T00:02:58.016Z,96548.23
2018-08-09T00:05:28.906Z,96541.58
2018-08-09T00:07:58.216Z,96539.31
2018-08-09T00:10:29.672Z,96540.19
2018-08-09T00:12:58.970Z,96544.73
2018-08-09T00:15:27.988Z,96537.64
2018-08-09T00:17:57.397Z,96537.98
2018-08-09T00:20:28.506Z,96542.02
2018-08-09T00:22:57.973Z,96533.92
2018-08-09T00:25:27.169Z,96533.61
2018-08-09T00:27:56.337Z,96528.48
2018-08-09T00:30:27.246Z,96525.66
2018-08-09T00:32:56.426Z,96528.05
2018-08-09T00:35:25.755Z,96521.83
2018-08-09T00:37:54.934Z,96523.34
2018-08-09T00:40:24.262Z,96525.19
2018-08-09T00:42:53.350Z,96530.33
2018-08-09T00:45:23.753Z,96530.64
2018-08-09T00:47:55.364Z,96535.31
2018-08-09T00:50:25.046Z,96528.13
2018-08-09T00:52:54.335Z,96522.37
2018-08-09T00:55:25.532Z,96531.08
2018-08-09T00:57:54.697Z,96525.36
2018-08-09T01:00:25.696Z,96521.84
2018-08-09T01:02:56.476Z,96520.45
2018-08-09T01:05:26.295Z,96524.92
2018-08-09T01:07:57.434Z,96521.07
2018-08-09T01:10:28.136Z,96512.27
2018-08-09T01:12:59.120Z,96508.88
2018-08-09T01:15:28.345Z,96505.83
2018-08-09T01:17:59.752Z,96506.27
2018-08-09T01:20:31.254Z,96503.66
2018-08-09T01:23:01.394Z,96505.73
2018-08-09T01:25:32.331Z,96504.43
2018-08-09T01:28:02.764Z,96497.21
2018-08-09T01:30:33.496Z,96499.95
2018-08-09T01:33:04.204Z,96505.17
2018-08-09T01:35:35.054Z,96505.17
2018-08-09T01:38:06.537Z,96508.41
2018-08-09T01:40:35.739Z,96499.58
2018-08-09T01:43:15.868Z,96500.66
2018-08-09T01:45:46.296Z,96498.83
2018-08-09T01:48:15.416Z,96501.44
2018-08-09T01:50:44.724Z,96492.30
2018-08-09T01:53:15.159Z,96490.22
2018-08-09T01:55:45.102Z,96483.25
2018-08-09T01:58:16.438Z,96479.20
2018-08-09T02:00:45.632Z,96480.17
2018-08-09T02:03:16.802Z,96488.13
2018-08-09T02:05:45.692Z,96497.67
2018-08-09T02:08:14.865Z,96495.62
2018-08-09T02:10:44.112Z,96492.92
2018-08-09T02:13:13.243Z,96489.31
2018-08-09T02:15:42.900Z,96485.95
2018-08-09T02:18:11.669Z,96480.70
2018-08-09T02:20:40.631Z,96479.05
2018-08-09T02:23:09.904Z,96473.59
2018-08-09T02:25:39.029Z,96464.21
2018-08-09T02:28:08.248Z,96469.98
2018-08-09T02:30:37.347Z,96458.67
2018-08-09T02:36:00.860Z,96459.63
2018-08-09T02:38:30.133Z,96463.20
2018-08-09T02:40:59.338Z,96457.55
2018-08-09T02:43:28.430Z,96455.72
2018-08-09T02:45:57.485Z,96462.02
2018-08-09T02:48:26.800Z,96458.85
2018-08-09T02:50:56.089Z,96454.19
2018-08-09T02:53:26.916Z,96448.84
2018-08-09T02:55:57.619Z,96452.54
2018-08-09T02:58:28.148Z,96452.28
2018-08-09T03:00:57.426Z,96445.75
2018-08-09T03:03:26.407Z,96446.06
2018-08-09T03:05:55.499Z,96443.77
2018-08-09T03:08:24.795Z,96438.85
2018-08-09T03:10:54.015Z,96429.19
2018-08-09T03:13:23.222Z,96429.06
2018-08-09T03:15:52.356Z,96434.02
2018-08-09T03:18:21.973Z,96430.75
2018-08-09T03:20:51.158Z,96428.45
2018-08-09T03:23:20.419Z,96429.74
2018-08-09T03:25:49.602Z,96430.92
2018-08-09T03:28:18.710Z,96430.27
2018-08-09T03:30:48.450Z,96433.97
2018-08-09T03:33:17.651Z,96433.70
2018-08-09T03:35:46.820Z,96431.87
2018-08-09T03:38:16.736Z,96431.87
2018-08-09T03:40:47.917Z,96439.56
2018-08-09T03:43:17.076Z,96444.64
2018-08-09T03:45:47.459Z,96455.63
2018-08-09T03:48:18.537Z,96449.42
2018-08-09T03:50:48.763Z,96445.95
2018-08-09T03:53:19.586Z,96450.98
2018-08-09T03:55:50.716Z,96454.17
2018-08-09T03:58:21.760Z,96446.98
2018-08-09T04:00:52.338Z,96452.45
2018-08-09T04:03:23.125Z,96455.63
2018-08-09T04:05:53.838Z,96459.23
2018-08-09T04:08:23.998Z,96458.06
2018-08-09T04:10:55.692Z,96457.89
2018-08-09T04:13:27.126Z,96457.41
2018-08-09T04:15:57.617Z,96456.89
2018-08-09T04:18:28.587Z,96458.20
2018-08-09T04:21:00.035Z,96453.89
2018-08-09T04:23:29.330Z,96458.27
2018-08-09T04:25:59.250Z,96456.53
2018-08-09T04:28:30.319Z,96455.23
2018-08-09T04:31:00.090Z,96456.32
2018-08-09T04:33:28.940Z,96452.13
2018-08-09T04:35:59.408Z,96453.55
2018-08-09T04:38:28.209Z,96445.49
2018-08-09T04:40:57.635Z,96443.90
2018-08-09T04:43:26.429Z,96442.47
2018-08-09T04:45:55.687Z,96444.67
2018-08-09T04:48:25.077Z,96445.84
2018-08-09T04:50:54.798Z,96450.98
2018-08-09T04:53:24.133Z,96455.03
2018-08-09T04:55:53.918Z,96452.13
2018-08-09T04:58:23.264Z,96456.13
2018-08-09T05:00:53.143Z,96462.16
2018-08-09T05:03:22.458Z,96468.46
2018-08-09T05:05:51.630Z,96467.04
2018-08-09T05:08:21.057Z,96475.23
2018-08-09T05:10:51.728Z,96479.16
2018-08-09T05:13:20.802Z,96475.45
2018-08-09T05:15:49.865Z,96473.58
2018-08-09T05:18:19.148Z,96472.37
2018-08-09T05:20:49.147Z,96470.09
2018-08-09T05:23:18.349Z,96473.58
2018-08-09T05:25:47.419Z,96473.34
2018-08-09T05:28:17.154Z,96473.14
2018-08-09T05:30:46.457Z,96471.69
2018-08-09T05:33:39.696Z,96478.88
2018-08-09T05:36:08.774Z,96476.36
2018-08-09T05:38:37.995Z,96479.05
2018-08-09T05:41:07.192Z,96480.52
2018-08-09T05:43:36.300Z,96475.01
2018-08-09T05:46:05.730Z,96477.81
2018-08-09T05:48:34.910Z,96479.03
2018-08-09T05:51:04.104Z,96484.57
2018-08-09T05:53:33.255Z,96483.56
2018-08-09T05:56:02.417Z,96485.67
2018-08-09T05:58:31.625Z,96487.09
2018-08-09T06:01:00.760Z,96489.72
2018-08-09T06:03:29.876Z,96485.25
2018-08-09T06:05:59.054Z,96483.58
2018-08-09T06:08:28.269Z,96488.69
2018-08-09T06:10:57.474Z,96484.95
2018-08-09T06:13:26.838Z,96485.51
2018-08-09T06:15:55.948Z,96487.70
2018-08-09T06:18:25.072Z,96488.84
2018-08-09T06:20:54.296Z,96483.23
2018-08-09T06:23:23.416Z,96484.86
2018-08-09T06:25:53.049Z,96486.24
2018-08-09T06:28:22.481Z,96484.52
2018-08-09T06:30:51.661Z,96480.86
2018-08-09T06:33:20.858Z,96479.28
2018-08-09T06:35:50.078Z,96482.96
2018-08-09T06:38:19.055Z,96474.79
2018-08-09T06:40:48.101Z,96469.46
2018-08-09T06:43:17.314Z,96476.81
2018-08-09T06:45:46.548Z,96473.98
2018-08-09T06:48:15.854Z,96470.56
2018-08-09T06:50:45.064Z,96471.53
2018-08-09T06:53:14.215Z,96467.03
2018-08-09T06:55:43.305Z,96469.05
2018-08-09T06:58:12.417Z,96464.48
2018-08-09T07:00:41.636Z,96460.02
2018-08-09T07:03:10.842Z,96464.46
2018-08-09T07:05:40.080Z,96465.58
2018-08-09T07:08:09.300Z,96468.52
2018-08-09T07:10:38.583Z,96462.13
2018-08-09T07:13:07.880Z,96466.40
2018-08-09T07:15:36.988Z,96465.33
2018-08-09T07:18:06.219Z,96461.23
2018-08-09T07:20:35.400Z,96468.22
2018-08-09T07:23:04.614Z,96461.38
2018-08-09T07:25:33.819Z,96456.78
2018-08-09T07:28:03.086Z,96456.17
2018-08-09T07:30:32.320Z,96450.02
2018-08-09T07:33:01.435Z,96449.58
2018-08-09T07:35:30.521Z,96442.97
2018-08-09T07:37:59.618Z,96434.41
2018-08-09T07:40:28.818Z,96436.98
2018-08-09T07:42:58.133Z,96435.72
2018-08-09T07:45:27.401Z,96430.52
2018-08-09T07:47:56.516Z,96425.31
2018-08-09T07:50:25.717Z,96427.11
2018-08-09T07:52:54.908Z,96431.99
2018-08-09T07:55:24.011Z,96426.77
2018-08-09T07:57:53.156Z,96421.70
2018-08-09T08:00:22.413Z,96411.15
2018-08-09T08:02:51.648Z,96420.46
2018-08-09T08:05:20.895Z,96417.64
2018-08-09T08:07:50.111Z,96417.56
2018-08-09T08:10:19.294Z,96417.66
2018-08-09T08:12:48.512Z,96413.16
2018-08-09T08:15:17.688Z,96412.34
2018-08-09T08:17:46.910Z,96401.03
2018-08-09T08:20:16.038Z,96399.34
2018-08-09T08:22:45.187Z,96402.03
2018-08-09T08:25:14.411Z,96401.50
2018-08-09T08:27:43.636Z,96402.12
2018-08-09T08:30:14.175Z,96404.58
2018-08-09T08:32:43.826Z,96397.38
2018-08-09T08:35:13.025Z,96396.06
2018-08-09T08:37:42.386Z,96394.56
2018-08-09T08:40:11.628Z,96388.48
2018-08-09T08:42:40.828Z,96390.35
2018-08-09T08:45:12.637Z,96381.63
2018-08-09T08:47:42.261Z,96384.09
2018-08-09T08:50:11.863Z,96385.02
2018-08-09T08:52:41.004Z,96374.02
2018-08-09T08:55:11.592Z,96382.48
2018-08-09T08:57:40.734Z,96381.88
2018-08-09T09:00:11.386Z,96385.44
2018-08-09T09:02:40.931Z,96382.96
2018-08-09T09:05:11.845Z,96375.48
2018-08-09T09:07:41.004Z,96371.83
2018-08-09T09:10:11.337Z,96373.55
2018-08-09T09:12:40.629Z,96372.81
2018-08-09T09:15:11.966Z,96366.83
2018-08-09T09:17:41.949Z,96368.95
2018-08-09T09:20:13.716Z,96363.68
2018-08-09T09:22:43.541Z,96371.95
2018-08-09T09:25:13.022Z,96369.05
2018-08-09T09:27:42.210Z,96365.16
2018-08-09T09:30:14.203Z,96357.35
2018-08-09T09:32:43.287Z,96355.82
2018-08-09T09:35:12.553Z,96351.66
2018-08-09T09:37:42.289Z,96354.52
2018-08-09T09:40:11.468Z,96354.37
2018-08-09T09:42:40.648Z,96352.39
2018-08-09T09:45:10.509Z,96354.09
2018-08-09T09:47:39.766Z,96360.64
2018-08-09T09:50:10.357Z,96356.25
2018-08-09T09:52:39.637Z,96349.35
2018-08-09T09:55:08.890Z,96351.23
2018-08-09T09:57:38.232Z,96348.75
2018-08-09T10:00:12.555Z,96345.13
2018-08-09T10:02:41.820Z,96335.64
2018-08-09T10:05:11.021Z,96336.93
2018-08-09T10:07:40.501Z,96339.56
2018-08-09T10:10:10.296Z,96329.28
2018-08-09T10:12:39.725Z,96339.64
2018-08-09T10:15:08.849Z,96345.60
2018-08-09T10:17:38.090Z,96331.85
2018-08-09T10:20:07.678Z,96327.17
2018-08-09T10:22:37.072Z,96322.06
2018-08-09T10:25:06.483Z,96318.44
2018-08-09T10:27:35.556Z,96324.58
2018-08-09T10:30:05.432Z,96314.81
2018-08-09T10:32:34.461Z,96312.27
2018-08-09T10:35:03.581Z,96312.92
2018-08-09T10:37:32.697Z,96304.58
2018-08-09T10:40:01.825Z,96300.20
2018-08-09T10:42:30.856Z,96298.13
2018-08-09T10:45:00.047Z,96295.66
2018-08-09T10:47:29.232Z,96289.56
2018-08-09T10:49:58.440Z,96291.81
2018-08-09T10:52:27.471Z,96284.81
2018-08-09T10:54:56.743Z,96289.06
2018-08-09T10:57:25.837Z,96296.76
2018-08-09T10:59:54.909Z,96296.35
2018-08-09T11:02:23.908Z,96298.34
2018-08-09T11:04:53.024Z,96293.00
2018-08-09T11:07:22.212Z,96296.67
2018-08-09T11:09:51.269Z,96291.36
2018-08-09T11:12:20.494Z,96288.00
2018-08-09T11:14:49.633Z,96284.84
2018-08-09T11:17:18.903Z,96286.00
2018-08-09T11:19:48.022Z,96274.53
2018-08-09T11:22:17.308Z,96275.52
2018-08-09T11:24:46.386Z,96296.52
2018-08-09T11:27:15.602Z,96278.16
2018-08-09T11:29:44.596Z,96276.38
2018-08-09T11:32:13.676Z,96277.27
2018-08-09T11:34:43.585Z,96261.66
2018-08-09T11:37:12.808Z,96267.50
2018-08-09T11:39:41.949Z,96254.56
2018-08-09T11:42:11.244Z,96258.47
2018-08-09T11:44:40.514Z,96245.89
2018-08-09T11:47:09.772Z,96242.77
2018-08-09T11:49:38.795Z,96247.77
2018-08-09T11:52:07.772Z,96247.40
2018-08-09T11:54:36.990Z,96241.73
2018-08-09T11:57:06.116Z,96243.39
2018-08-09T11:59:35.284Z,96235.95
2018-08-09T12:02:04.437Z,96240.20
2018-08-09T12:04:33.753Z,96236.02
2018-08-09T12:07:02.888Z,96242.95
2018-08-09T12:09:32.184Z,96231.69
2018-08-09T12:12:01.334Z,96231.20
2018-08-09T12:14:30.532Z,96225.36
2018-08-09T12:16:59.678Z,96226.86
2018-08-09T12:19:28.810Z,96216.28
2018-08-09T12:21:58.079Z,96219.13
2018-08-09T12:24:27.335Z,96212.41
2018-08-09T12:26:56.578Z,96215.73
2018-08-09T12:29:25.656Z,96208.59
2018-08-09T12:31:54.702Z,96197.99
2018-08-09T12:34:23.853Z,96192.31
2018-08-09T12:36:53.052Z,96181.00
2018-08-09T12:39:22.156Z,96177.53
2018-08-09T12:41:51.346Z,96176.98
2018-08-09T12:44:20.555Z,96167.73
2018-08-09T12:46:49.742Z,96160.58
2018-08-09T12:49:18.853Z,96162.80
2018-08-09T12:51:48.098Z,96166.42
2018-08-09T12:54:23.521Z,96163.52
2018-08-09T12:56:52.797Z,96164.04
2018-08-09T12:59:21.996Z,96162.02
2018-08-09T13:01:51.082Z,96156.09
2018-08-09T13:04:20.178Z,96143.71
2018-08-09T13:06:49.405Z,96138.05
2018-08-09T13:09:18.580Z,96144.39
2018-08-09T13:11:47.678Z,96140.98
2018-08-09T13:14:16.886Z,96134.96
2018-08-09T13:16:46.069Z,96137.50
2018-08-09T13:19:15.167Z,96136.78
2018-08-09T13:21:44.192Z,96144.78
2018-08-09T13:24:13.380Z,96139.88
2018-08-09T13:26:42.352Z,96145.50
2018-08-09T13:29:11.560Z,96142.03
2018-08-09T13:31:40.661Z,96135.32
2018-08-09T13:34:10.216Z,96152.95
2018-08-09T13:36:39.353Z,96145.00
2018-08-09T13:39:11.459Z,96144.58
2018-08-09T13:41:40.749Z,96145.13
2018-08-09T13:44:09.914Z,96162.70
2018-08-09T13:46:39.119Z,96146.30
2018-08-09T13:49:08.265Z,96142.45
2018-08-09T13:51:37.541Z,96145.91
2018-08-09T13:54:06.679Z,96147.22
2018-08-09T13:56:35.757Z,96151.79
2018-08-09T13:59:05.067Z,96154.16
2018-08-09T14:01:34.354Z,96146.64
2018-08-09T14:04:03.632Z,96160.59
2018-08-09T14:06:33.082Z,96171.94
2018-08-09T14:09:02.305Z,96288.91
2018-08-09T14:11:31.665Z,96316.85
2018-08-09T14:14:00.715Z,96314.13
2018-08-09T14:16:29.909Z,96313.31
2018-08-09T14:18:59.118Z,96333.75
2018-08-09T14:21:28.302Z,96328.41
2018-08-09T14:23:57.647Z,96343.58
2018-08-09T14:26:26.957Z,96361.66
2018-08-09T14:28:56.274Z,96387.48
2018-08-09T14:31:25.588Z,96391.98
2018-08-09T14:33:54.960Z,96393.08
2018-08-09T14:36:24.238Z,96400.47
2018-08-09T14:38:53.321Z,96435.20
2018-08-09T14:41:22.400Z,96450.16
2018-08-09T14:43:51.522Z,96452.30
2018-08-09T14:46:20.612Z,96438.87
2018-08-09T14:48:49.808Z,96466.95
2018-08-09T14:51:18.907Z,96446.41
2018-08-09T14:53:48.155Z,96444.09
2018-08-09T14:56:17.201Z,96439.95
2018-08-09T14:58:46.380Z,96443.13
2018-08-09T15:01:15.490Z,96449.69
2018-08-09T15:03:44.693Z,96447.75
2018-08-09T15:06:14.206Z,96447.03
2018-08-09T15:08:43.279Z,96441.77
2018-08-09T15:11:12.656Z,96443.05
2018-08-09T15:13:41.924Z,96443.84
2018-08-09T15:16:11.265Z,96435.42
2018-08-09T15:18:40.500Z,96444.41
2018-08-09T15:21:09.658Z,96446.61
2018-08-09T15:23:39.045Z,96447.69
2018-08-09T15:26:08.357Z,96451.75
2018-08-09T15:28:37.584Z,96451.08
2018-08-09T15:31:06.712Z,96446.69
2018-08-09T15:33:35.787Z,96440.45
2018-08-09T15:36:05.014Z,96450.50
2018-08-09T15:38:34.149Z,96444.11
2018-08-09T15:41:03.290Z,96443.45
2018-08-09T15:43:32.481Z,96442.32
2018-08-09T15:46:01.790Z,96440.44
2018-08-09T15:48:30.976Z,96440.86
2018-08-09T15:51:00.074Z,96450.22
2018-08-09T15:53:29.284Z,96455.02
2018-08-09T15:55:58.360Z,96442.89
2018-08-09T15:58:27.582Z,96456.37
2018-08-09T16:00:56.756Z,96451.84
2018-08-09T16:03:25.884Z,96455.52
2018-08-09T16:05:54.953Z,96459.11
2018-08-09T16:08:24.180Z,96454.48
2018-08-09T16:10:53.458Z,96459.48
2018-08-09T16:13:22.673Z,96450.91
2018-08-09T16:15:51.745Z,96443.00
2018-08-09T16:18:51.794Z,96438.38
2018-08-09T16:21:20.980Z,96442.22
2018-08-09T16:23:50.088Z,96451.15
2018-08-09T16:26:19.433Z,96464.54
2018-08-09T16:28:48.749Z,96455.27
2018-08-09T16:31:17.949Z,96456.22
2018-08-09T16:33:47.194Z,96462.09
2018-08-09T16:36:16.486Z,96455.27
2018-08-09T16:38:45.676Z,96458.48
2018-08-09T16:41:14.880Z,96453.25
2018-08-09T16:43:44.082Z,96459.13
2018-08-09T16:46:13.277Z,96457.89
2018-08-09T16:48:42.912Z,96450.91
2018-08-09T16:51:12.340Z,96457.13
2018-08-09T16:53:41.665Z,96453.95
2018-08-09T16:56:11.052Z,96459.53
2018-08-09T16:58:40.259Z,96462.17
2018-08-09T17:01:09.470Z,96455.05
2018-08-09T17:03:38.702Z,96456.87
2018-08-09T17:06:07.850Z,96450.58
2018-08-09T17:08:37.005Z,96455.16
2018-08-09T17:11:06.261Z,96465.63
2018-08-09T17:13:35.413Z,96458.78
2018-08-09T17:16:04.941Z,96467.09
2018-08-09T17:18:34.975Z,96467.40
2018-08-09T17:21:04.255Z,96466.09
2018-08-09T17:23:33.925Z,96467.00
2018-08-09T17:26:03.362Z,96471.73
2018-08-09T17:28:32.585Z,96474.19
2018-08-09T17:31:03.646Z,96475.67
2018-08-09T17:33:32.976Z,96485.50
2018-08-09T17:36:02.894Z,96486.23
2018-08-09T17:38:32.537Z,96492.48
2018-08-09T17:41:01.745Z,96502.59
2018-08-09T17:43:30.996Z,96507.85
2018-08-09T17:46:00.356Z,96511.01
2018-08-09T17:48:29.378Z,96512.35
2018-08-09T17:50:58.477Z,96520.52
2018-08-09T17:53:27.752Z,96533.22
2018-08-09T17:55:57.338Z,96540.94
2018-08-09T17:58:26.529Z,96545.63
2018-08-09T18:00:55.801Z,96561.33
2018-08-09T18:03:25.095Z,96574.50
2018-08-09T18:05:54.175Z,96574.94
2018-08-09T18:08:23.448Z,96574.94
2018-08-09T18:10:52.474Z,96566.91
2018-08-09T18:13:21.462Z,96575.94
2018-08-09T18:15:50.601Z,96588.96
2018-08-09T18:18:19.680Z,96581.77
2018-08-09T18:20:48.758Z,96584.05
2018-08-09T18:23:17.972Z,96585.06
2018-08-09T18:25:47.209Z,96580.85
2018-08-09T18:28:16.503Z,96589.61
2018-08-09T18:30:45.834Z,96575.41
2018-08-09T18:33:14.979Z,96562.39
2018-08-09T18:35:44.356Z,96558.76
2018-08-09T18:38:13.659Z,96555.98
2018-08-09T18:40:42.915Z,96557.09
2018-08-09T18:43:12.048Z,96556.28
2018-08-09T18:45:41.217Z,96569.79
2018-08-09T18:48:10.424Z,96575.70
2018-08-09T18:50:39.643Z,96583.04
2018-08-09T18:53:09.218Z,96579.55
2018-08-09T18:55:38.489Z,96572.56
2018-08-09T18:58:07.897Z,96575.06
2018-08-09T19:00:37.184Z,96576.94
2018-08-09T19:03:06.368Z,96570.47
2018-08-09T19:05:35.586Z,96569.82
2018-08-09T19:08:05.193Z,96564.45
2018-08-09T19:10:34.382Z,96569.78
2018-08-09T19:13:03.609Z,96578.91
2018-08-09T19:15:32.776Z,96593.06
2018-08-09T19:18:01.953Z,96616.13
2018-08-09T19:20:32.565Z,96630.42
2018-08-09T19:23:01.977Z,96623.63
2018-08-09T19:25:31.246Z,96621.00
2018-08-09T19:28:00.469Z,96632.33
2018-08-09T19:30:30.517Z,96634.59
2018-08-09T19:32:59.619Z,96637.94
2018-08-09T19:35:29.052Z,96639.67
2018-08-09T19:37:58.146Z,96652.91
2018-08-09T19:40:29.664Z,96656.42
2018-08-09T19:42:58.922Z,96657.77
2018-08-09T19:45:28.206Z,96659.56
2018-08-09T19:47:57.401Z,96655.13
2018-08-09T19:50:26.746Z,96651.88
2018-08-09T19:52:56.015Z,96662.25
2018-08-09T19:55:26.414Z,96663.34
2018-08-09T19:57:55.593Z,96659.43
2018-08-09T20:00:26.214Z,96663.17
2018-08-09T20:02:55.449Z,96675.52
2018-08-09T20:05:25.425Z,96674.30
2018-08-09T20:07:54.628Z,96689.03
2018-08-09T20:10:23.867Z,96701.22
2018-08-09T20:12:53.055Z,96707.03
2018-08-09T20:15:24.757Z,96714.73
2018-08-09T20:17:54.067Z,96724.01
2018-08-09T20:20:25.326Z,96721.02
2018-08-09T20:22:54.615Z,96727.93
2018-08-09T20:25:23.773Z,96733.95
2018-08-09T20:27:52.954Z,96739.26
2018-08-09T20:30:22.175Z,96743.81
2018-08-09T20:32:51.506Z,96741.88
2018-08-09T20:35:23.270Z,96745.94
2018-08-09T20:37:52.875Z,96753.24
2018-08-09T20:40:23.007Z,96752.33
2018-08-09T20:42:53.232Z,96755.94
2018-08-09T20:45:23.396Z,96768.64
2018-08-09T20:47:52.661Z,96768.87
2018-08-09T20:50:27.580Z,96765.73
2018-08-09T20:52:56.795Z,96760.64
2018-08-09T20:55:25.961Z,96759.72
2018-08-09T20:57:55.908Z,96757.75
2018-08-09T21:00:28.548Z,96767.25
2018-08-09T21:02:58.848Z,96756.08
2018-08-09T21:05:30.500Z,96756.72
2018-08-09T21:07:59.650Z,96756.73
2018-08-09T21:10:29.545Z,96758.24
2018-08-09T21:12:58.845Z,96751.48
2018-08-09T21:15:29.945Z,96759.80
2018-08-09T21:18:02.351Z,96755.55
2018-08-09T21:20:31.997Z,96758.50
2018-08-09T21:23:01.305Z,96760.36
2018-08-09T21:25:30.385Z,96764.14
2018-08-09T21:27:59.489Z,96765.53
2018-08-09T21:30:28.809Z,96766.83
2018-08-09T21:32:58.082Z,96762.41
2018-08-09T21:35:27.277Z,96761.61
2018-08-09T21:37:57.573Z,96762.52
2018-08-09T21:40:28.128Z,96765.44
2018-08-09T21:42:57.260Z,96771.91
2018-08-09T21:45:26.507Z,96763.19
2018-08-09T21:47:55.769Z,96771.55
2018-08-09T21:50:25.120Z,96772.50
2018-08-09T21:52:54.272Z,96771.97
2018-08-09T21:55:25.153Z,96774.59
2018-08-09T21:57:54.415Z,96778.64
2018-08-09T22:01:01.268Z,96776.90
2018-08-09T22:03:32.153Z,96785.98
2018-08-09T22:06:06.293Z,96784.98
2018-08-09T22:08:40.388Z,96785.41
2018-08-09T22:11:15.728Z,96796.52
2018-08-09T22:13:49.925Z,96804.92
2018-08-09T22:16:24.029Z,96808.39
2018-08-09T22:18:58.446Z,96810.80
2018-08-09T22:21:32.621Z,96811.31
2018-08-09T22:24:01.785Z,96817.28
2018-08-09T22:26:30.892Z,96830.05
2018-08-09T22:29:00.079Z,96834.88
2018-08-09T22:31:30.656Z,96841.89
2018-08-09T22:33:59.813Z,96847.88
2018-08-09T22:36:32.385Z,96852.95
2018-08-09T22:39:01.573Z,96859.55
2018-08-09T22:41:31.415Z,96860.37
2018-08-09T22:44:02.320Z,96875.52
2018-08-09T22:46:31.636Z,96873.36
2018-08-09T22:49:00.829Z,96877.95
2018-08-09T22:51:31.853Z,96880.33
2018-08-09T22:54:01.085Z,96884.25
2018-08-09T22:56:30.650Z,96892.80
2018-08-09T22:58:59.921Z,96893.09
2018-08-09T23:01:29.192Z,96895.20
2018-08-09T23:03:58.335Z,96892.66
2018-08-09T23:06:29.301Z,96900.75
2018-08-09T23:08:58.425Z,96896.72
2018-08-09T23:11:27.644Z,96899.67
2018-08-09T23:13:56.810Z,96906.60
2018-08-09T23:16:25.914Z,96908.81
2018-08-09T23:18:55.013Z,96909.03
2018-08-09T23:21:24.086Z,96912.77
2018-08-09T23:23:53.366Z,96915.48
2018-08-09T23:26:22.721Z,96919.63
2018-08-09T23:28:51.996Z,96930.45
2018-08-09T23:31:21.174Z,96934.68
2018-08-09T23:33:50.396Z,96936.39
2018-08-09T23:36:19.504Z,96939.72
2018-08-09T23:38:48.690Z,96940.20
2018-08-09T23:41:18.061Z,96941.88
2018-08-09T23:43:47.286Z,96936.44
2018-08-09T23:46:16.660Z,96938.45
2018-08-09T23:48:45.860Z,96945.39
2018-08-09T23:51:14.891Z,96946.41
2018-08-09T23:53:43.981Z,96951.25
2018-08-09T23:56:13.196Z,96958.69
2018-08-09T23:58:42.280Z,96953.09
